createdAt,value
2023-05-03T00:02:19.394Z,88.96
2023-05-03T00:05:06.112Z,88.38
2023-05-03T00:07:52.923Z,89.28
2023-05-03T00:10:36.818Z,89.15
2023-05-03T00:13:20.629Z,87.63
2023-05-03T00:16:04.804Z,87.32
2023-05-03T00:18:49.440Z,87.35
2023-05-03T00:21:33.358Z,89.18
2023-05-03T00:24:18.906Z,89.50
2023-05-03T00:27:02.851Z,88.08
2023-05-03T00:29:47.038Z,87.52
2023-05-03T00:32:30.744Z,87.22
2023-05-03T00:35:14.474Z,86.85
2023-05-03T00:37:58.366Z,86.13
2023-05-03T00:40:43.607Z,85.32
2023-05-03T00:43:27.696Z,84.97
2023-05-03T00:46:17.269Z,85.25
2023-05-03T00:49:02.357Z,84.22
2023-05-03T00:51:46.345Z,84.24
2023-05-03T00:54:33.129Z,83.47
2023-05-03T00:57:18.607Z,83.19
2023-05-03T01:00:04.183Z,82.42
2023-05-03T01:02:50.515Z,81.56
2023-05-03T01:05:43.639Z,82.50
2023-05-03T01:08:33.102Z,83.72
2023-05-03T01:11:24.064Z,85.54
2023-05-03T01:14:17.782Z,86.80
2023-05-03T01:17:08.808Z,87.92
2023-05-03T01:19:56.454Z,87.61
2023-05-03T01:22:47.134Z,88.11
2023-05-03T01:25:32.955Z,88.33
2023-05-03T01:28:16.748Z,88.01
2023-05-03T01:31:01.214Z,88.25
2023-05-03T01:33:55.058Z,89.10
2023-05-03T01:36:40.356Z,87.98
2023-05-03T01:39:27.376Z,88.70
2023-05-03T01:42:13.566Z,87.57
2023-05-03T01:44:58.062Z,89.63
2023-05-03T01:47:42.029Z,88.23
2023-05-03T01:50:25.931Z,87.88
2023-05-03T01:53:09.771Z,87.98
2023-05-03T01:55:53.498Z,87.28
2023-05-03T01:58:38.728Z,87.21
2023-05-03T02:01:22.493Z,86.91
2023-05-03T02:04:06.857Z,86.66
2023-05-03T02:06:50.893Z,86.19
2023-05-03T02:09:35.380Z,86.04
2023-05-03T02:12:19.306Z,85.82
2023-05-03T02:15:05.579Z,85.40
2023-05-03T02:17:51.004Z,85.07
2023-05-03T02:20:37.847Z,86.13
2023-05-03T02:23:21.874Z,86.92
2023-05-03T02:26:06.635Z,87.31
2023-05-03T02:28:50.714Z,87.40
2023-05-03T02:31:35.999Z,87.24
2023-05-03T02:34:20.936Z,87.03
2023-05-03T02:37:05.464Z,87.81
2023-05-03T02:39:51.106Z,87.52
2023-05-03T02:42:34.977Z,87.55
2023-05-03T02:45:19.014Z,87.61
2023-05-03T02:48:04.239Z,88.22
2023-05-03T02:50:48.469Z,87.01
2023-05-03T02:53:32.319Z,88.39
2023-05-03T02:56:19.657Z,88.91
2023-05-03T02:59:03.759Z,89.12
2023-05-03T03:01:48.085Z,88.48
2023-05-03T03:04:34.438Z,90.27
2023-05-03T03:07:18.336Z,90.03
2023-05-03T03:10:02.386Z,90.02
2023-05-03T03:12:48.465Z,91.85
2023-05-03T03:15:41.365Z,92.25
2023-05-03T03:18:25.250Z,91.75
2023-05-03T03:21:10.547Z,90.88
2023-05-03T03:23:54.640Z,90.26
2023-05-03T03:26:38.556Z,90.53
2023-05-03T03:29:22.471Z,90.94
2023-05-03T03:32:07.744Z,91.25
2023-05-03T03:34:52.032Z,91.55
2023-05-03T03:37:38.984Z,90.41
2023-05-03T03:40:23.865Z,90.98
2023-05-03T03:43:10.385Z,90.01
2023-05-03T03:45:55.246Z,90.01
2023-05-03T03:48:39.729Z,89.17
2023-05-03T03:51:23.889Z,89.69
2023-05-03T03:54:09.219Z,89.72
2023-05-03T03:56:58.183Z,89.33
2023-05-03T03:59:41.999Z,88.80
2023-05-03T04:02:26.353Z,88.42
2023-05-03T04:05:11.151Z,87.25
2023-05-03T04:07:55.108Z,87.84
2023-05-03T04:10:40.295Z,86.93
2023-05-03T04:13:24.623Z,84.78
2023-05-03T04:16:11.577Z,86.12
2023-05-03T04:18:56.154Z,87.31
2023-05-03T04:21:40.062Z,85.44
2023-05-03T04:24:24.482Z,84.88
2023-05-03T04:27:09.827Z,85.27
2023-05-03T04:29:56.062Z,85.78
2023-05-03T04:32:40.773Z,84.89
2023-05-03T04:35:28.882Z,84.66
2023-05-03T04:38:14.820Z,82.15
2023-05-03T04:40:58.833Z,81.56
2023-05-03T04:43:44.760Z,80.78
2023-05-03T04:46:29.531Z,79.08
2023-05-03T04:49:13.608Z,78.27
2023-05-03T04:51:57.434Z,75.22
2023-05-03T04:54:42.549Z,73.66
2023-05-03T04:57:26.465Z,72.14
2023-05-03T05:00:13.486Z,69.45
2023-05-03T05:03:02.512Z,67.36
2023-05-03T05:05:48.316Z,67.95
2023-05-03T05:08:32.309Z,69.16
2023-05-03T05:11:16.822Z,68.44
2023-05-03T05:14:01.915Z,66.61
2023-05-03T05:16:47.446Z,68.78
2023-05-03T05:19:31.965Z,67.34
2023-05-03T05:22:15.803Z,67.26
2023-05-03T05:25:05.940Z,66.09
2023-05-03T05:27:50.353Z,64.05
2023-05-03T05:30:35.197Z,62.80
2023-05-03T05:33:21.079Z,63.51
2023-05-03T05:36:07.406Z,64.48
2023-05-03T05:38:51.663Z,64.98
2023-05-03T05:41:35.519Z,66.25
2023-05-03T05:44:19.407Z,65.29
2023-05-03T05:47:08.144Z,62.48
2023-05-03T05:49:54.813Z,60.87
2023-05-03T05:52:39.064Z,59.92
2023-05-03T05:55:24.122Z,59.08
2023-05-03T05:58:09.924Z,58.30
2023-05-03T06:01:01.458Z,57.19
2023-05-03T06:03:47.640Z,56.45
2023-05-03T06:06:33.350Z,56.12
2023-05-03T06:12:08.235Z,55.03
2023-05-03T06:15:02.389Z,54.33
2023-05-03T06:17:51.871Z,55.94
2023-05-03T06:20:35.978Z,53.14
2023-05-03T06:23:21.863Z,55.17
2023-05-03T06:26:09.545Z,54.47
2023-05-03T06:28:53.741Z,54.38
2023-05-03T06:31:41.974Z,53.72
2023-05-03T06:34:27.602Z,51.87
2023-05-03T06:37:12.920Z,50.87
2023-05-03T06:39:58.520Z,52.31
2023-05-03T06:42:42.513Z,51.41
2023-05-03T06:45:30.177Z,53.38
2023-05-03T06:48:15.695Z,52.17
2023-05-03T06:51:01.550Z,50.24
2023-05-03T06:53:46.330Z,49.08
2023-05-03T06:56:31.840Z,50.10
2023-05-03T06:59:15.793Z,50.87
2023-05-03T07:02:00.084Z,49.01
2023-05-03T07:04:44.124Z,49.23
2023-05-03T07:07:28.290Z,47.45
2023-05-03T07:10:12.372Z,47.47
2023-05-03T07:12:58.042Z,47.32
2023-05-03T07:15:42.071Z,46.71
2023-05-03T07:18:25.853Z,45.80
2023-05-03T07:21:09.754Z,46.21
2023-05-03T07:23:53.687Z,46.32
2023-05-03T07:26:37.524Z,44.67
2023-05-03T07:29:23.107Z,44.50
2023-05-03T07:32:07.385Z,43.91
2023-05-03T07:34:51.364Z,41.59
2023-05-03T07:37:35.768Z,41.65
2023-05-03T07:40:20.144Z,39.51
2023-05-03T07:43:04.419Z,41.58
2023-05-03T07:45:49.672Z,41.58
2023-05-03T07:48:33.578Z,40.86
2023-05-03T07:51:17.554Z,38.86
2023-05-03T07:54:01.726Z,40.20
2023-05-03T07:56:45.694Z,40.21
2023-05-03T07:59:29.732Z,38.40
2023-05-03T08:02:15.068Z,42.55
2023-05-03T08:04:59.279Z,40.41
2023-05-03T08:07:43.398Z,42.59
2023-05-03T08:10:27.255Z,42.58
2023-05-03T08:13:11.698Z,43.45
2023-05-03T08:15:56.166Z,42.78
2023-05-03T08:18:41.513Z,43.00
2023-05-03T08:21:26.282Z,43.97
2023-05-03T08:24:10.843Z,41.32
2023-05-03T08:26:57.012Z,40.92
2023-05-03T08:29:40.997Z,41.30
2023-05-03T08:32:25.197Z,40.16
2023-05-03T08:35:13.906Z,40.44
2023-05-03T08:37:57.963Z,40.42
2023-05-03T08:40:41.908Z,40.86
2023-05-03T08:43:29.651Z,40.47
2023-05-03T08:46:13.598Z,40.50
2023-05-03T08:48:57.707Z,40.81
2023-05-03T08:51:47.302Z,40.72
2023-05-03T08:54:31.421Z,39.95
2023-05-03T08:57:16.730Z,40.33
2023-05-03T09:00:02.366Z,40.48
2023-05-03T09:02:51.870Z,40.87
2023-05-03T09:05:39.230Z,41.77
2023-05-03T09:08:24.906Z,41.71
2023-05-03T09:11:23.187Z,42.17
2023-05-03T09:14:12.366Z,43.32
2023-05-03T09:16:56.587Z,45.86
2023-05-03T09:19:52.791Z,44.25
2023-05-03T09:22:37.778Z,41.44
2023-05-03T09:25:23.191Z,41.46
2023-05-03T09:28:07.268Z,40.85
2023-05-03T09:31:04.955Z,41.08
2023-05-03T09:33:49.060Z,40.29
2023-05-03T09:36:47.857Z,39.20
2023-05-03T09:39:32.423Z,39.03
2023-05-03T09:42:19.670Z,39.40
2023-05-03T09:45:04.128Z,37.95
2023-05-03T09:47:54.200Z,39.04
2023-05-03T09:50:38.936Z,37.70
2023-05-03T09:53:23.990Z,39.13
2023-05-03T09:56:12.698Z,38.03
2023-05-03T09:58:59.151Z,36.38
2023-05-03T10:01:43.388Z,36.83
2023-05-03T10:04:29.345Z,36.97
2023-05-03T10:07:16.005Z,34.99
2023-05-03T10:10:00.168Z,35.69
2023-05-03T10:12:45.281Z,34.14
2023-05-03T10:15:32.567Z,34.63
2023-05-03T10:18:18.274Z,35.25
2023-05-03T10:21:07.137Z,35.62
2023-05-03T10:24:13.174Z,32.33
2023-05-03T10:26:57.986Z,34.40
2023-05-03T10:30:04.232Z,33.96
2023-05-03T10:32:50.851Z,33.02
2023-05-03T10:35:34.963Z,31.66
2023-05-03T10:38:21.835Z,31.72
2023-05-03T10:41:07.315Z,32.16
2023-05-03T10:43:51.421Z,30.88
2023-05-03T10:46:36.654Z,31.14
2023-05-03T10:49:23.310Z,31.29
2023-05-03T10:52:50.000Z,31.79
2023-05-03T10:55:34.779Z,30.32
2023-05-03T10:58:19.138Z,28.09
2023-05-03T11:01:04.712Z,30.42
2023-05-03T11:03:53.535Z,30.78
2023-05-03T11:06:41.563Z,33.03
2023-05-03T11:09:33.257Z,30.62
2023-05-03T11:12:17.476Z,28.40
2023-05-03T11:15:01.943Z,28.17
2023-05-03T11:17:47.583Z,28.17
2023-05-03T11:20:31.752Z,29.05
2023-05-03T11:23:17.191Z,31.42
2023-05-03T11:26:01.076Z,31.13
2023-05-03T11:28:45.952Z,31.69
2023-05-03T11:31:30.117Z,32.20
2023-05-03T11:34:15.845Z,30.80
2023-05-03T11:36:59.892Z,32.85
2023-05-03T11:39:45.166Z,31.82
2023-05-03T11:42:29.290Z,32.71
2023-05-03T11:45:13.472Z,32.44
2023-05-03T11:47:58.300Z,32.88
2023-05-03T11:50:46.769Z,33.76
2023-05-03T11:53:31.055Z,34.60
2023-05-03T11:56:18.887Z,33.55
2023-05-03T11:59:03.261Z,33.81
2023-05-03T12:01:49.540Z,33.55
2023-05-03T12:04:33.826Z,32.72
2023-05-03T12:07:19.960Z,32.99
2023-05-03T12:10:20.850Z,33.69
2023-05-03T12:13:08.757Z,35.07
2023-05-03T12:16:11.074Z,35.04
2023-05-03T12:18:59.702Z,34.26
2023-05-03T12:22:02.921Z,32.92
2023-05-03T12:24:53.607Z,32.50
2023-05-03T12:27:39.768Z,34.30
2023-05-03T12:30:27.485Z,35.48
2023-05-03T12:33:15.330Z,35.22
2023-05-03T12:35:59.841Z,35.58
2023-05-03T12:38:43.946Z,35.11
2023-05-03T12:44:17.484Z,32.31
2023-05-03T12:47:03.402Z,33.61
2023-05-03T12:49:51.144Z,35.01
2023-05-03T12:52:38.641Z,35.51
2023-05-03T12:55:25.446Z,36.72
2023-05-03T13:03:57.798Z,35.53
2023-05-03T13:06:54.694Z,36.28
2023-05-03T13:12:47.765Z,38.25
2023-05-03T13:15:31.617Z,38.94
2023-05-03T13:18:15.496Z,38.94
2023-05-03T13:21:00.653Z,37.69
2023-05-03T13:26:45.805Z,36.57
2023-05-03T13:29:29.539Z,35.83
2023-05-03T13:32:13.654Z,36.16
2023-05-03T13:34:57.544Z,36.04
2023-05-03T13:37:42.981Z,38.16
2023-05-03T13:40:27.069Z,38.74
2023-05-03T13:43:11.396Z,39.25
2023-05-03T13:46:01.763Z,40.39
2023-05-03T13:48:45.905Z,39.98
2023-05-03T13:51:30.101Z,41.26
2023-05-03T13:54:15.678Z,41.95
2023-05-03T13:56:59.600Z,41.21
2023-05-03T13:59:43.635Z,39.51
2023-05-03T14:02:27.781Z,40.11
2023-05-03T14:05:12.085Z,40.02
2023-05-03T14:07:56.966Z,39.94
2023-05-03T14:10:42.909Z,41.75
2023-05-03T14:13:27.331Z,40.54
2023-05-03T14:16:27.578Z,39.00
2023-05-03T14:19:20.217Z,37.72
2023-05-03T14:22:04.606Z,37.64
2023-05-03T14:24:48.847Z,40.01
2023-05-03T14:27:34.340Z,39.67
2023-05-03T14:30:18.511Z,37.94
2023-05-03T14:33:02.701Z,38.71
2023-05-03T14:35:46.917Z,39.47
2023-05-03T14:38:31.070Z,41.54
2023-05-03T14:41:15.095Z,41.35
2023-05-03T14:44:00.508Z,42.24
2023-05-03T14:46:44.533Z,42.56
2023-05-03T14:49:28.548Z,41.38
2023-05-03T14:52:12.448Z,42.95
2023-05-03T14:54:56.698Z,44.43
2023-05-03T14:57:40.725Z,45.68
2023-05-03T15:00:28.411Z,46.49
2023-05-03T15:03:13.174Z,46.75
2023-05-03T15:05:57.203Z,48.24
2023-05-03T15:08:41.514Z,48.90
2023-05-03T15:11:25.659Z,49.61
2023-05-03T15:14:09.523Z,49.47
2023-05-03T15:16:55.259Z,50.32
2023-05-03T15:19:39.193Z,50.06
2023-05-03T15:22:23.411Z,49.75
2023-05-03T15:25:08.453Z,49.55
2023-05-03T15:27:52.792Z,49.18
2023-05-03T15:30:36.943Z,49.14
2023-05-03T15:33:22.471Z,49.80
2023-05-03T15:36:09.326Z,49.65
2023-05-03T15:38:53.447Z,51.65
2023-05-03T15:41:37.498Z,53.15
2023-05-03T15:44:24.305Z,54.35
2023-05-03T15:47:08.453Z,55.84
2023-05-03T15:49:54.401Z,55.45
2023-05-03T15:52:38.608Z,55.81
2023-05-03T15:55:22.697Z,56.73
2023-05-03T15:58:07.702Z,58.56
2023-05-03T16:00:52.515Z,60.04
2023-05-03T16:03:36.544Z,60.79
2023-05-03T16:06:22.286Z,62.14
2023-05-03T16:09:08.515Z,62.28
2023-05-03T16:11:52.828Z,61.53
2023-05-03T16:14:36.945Z,61.14
2023-05-03T16:17:22.263Z,62.15
2023-05-03T16:20:08.372Z,61.96
2023-05-03T16:22:53.944Z,59.84
2023-05-03T16:25:38.319Z,63.41
2023-05-03T16:28:22.415Z,64.27
2023-05-03T16:31:06.578Z,63.18
2023-05-03T16:33:50.605Z,64.78
2023-05-03T16:36:34.748Z,65.96
2023-05-03T16:39:20.338Z,64.67
2023-05-03T16:42:04.325Z,66.34
2023-05-03T16:44:48.501Z,66.30
2023-05-03T16:47:35.223Z,66.48
2023-05-03T16:50:19.365Z,66.62
2023-05-03T16:53:05.401Z,66.67
2023-05-03T16:55:51.440Z,66.06
2023-05-03T16:58:35.859Z,66.13
2023-05-03T17:01:23.123Z,65.48
2023-05-03T17:04:07.748Z,67.75
2023-05-03T17:09:37.323Z,68.05
2023-05-03T17:12:22.850Z,68.20
2023-05-03T17:15:08.398Z,71.05
2023-05-03T17:17:55.277Z,74.02
2023-05-03T17:20:39.530Z,73.83
2023-05-03T17:23:23.713Z,75.70
2023-05-03T17:26:09.762Z,75.49
2023-05-03T17:29:02.548Z,73.58
2023-05-03T17:31:48.919Z,71.79
2023-05-03T17:34:36.160Z,71.04
2023-05-03T17:37:20.284Z,69.98
2023-05-03T17:40:05.494Z,69.12
2023-05-03T17:42:49.630Z,70.53
2023-05-03T17:45:35.021Z,69.64
2023-05-03T17:48:20.875Z,70.31
2023-05-03T17:51:04.982Z,71.10
2023-05-03T17:53:49.273Z,71.27
2023-05-03T17:56:35.525Z,70.47
2023-05-03T17:59:19.806Z,70.98
2023-05-03T18:02:08.358Z,69.73
2023-05-03T18:04:52.493Z,70.65
2023-05-03T18:07:38.437Z,70.23
2023-05-03T18:10:30.398Z,70.31
2023-05-03T18:13:15.862Z,69.37
2023-05-03T18:16:00.534Z,70.17
2023-05-03T18:18:47.917Z,70.44
2023-05-03T18:21:31.999Z,70.98
2023-05-03T18:24:19.767Z,71.64
2023-05-03T18:27:06.837Z,71.03
2023-05-03T18:29:51.248Z,70.73
2023-05-03T18:32:37.716Z,70.01
2023-05-03T18:35:24.900Z,68.83
2023-05-03T18:38:10.276Z,68.71
2023-05-03T18:40:58.131Z,68.87
2023-05-03T18:43:44.833Z,68.16
2023-05-03T18:46:30.344Z,67.16
2023-05-03T18:49:15.662Z,66.89
2023-05-03T18:52:01.557Z,65.79
2023-05-03T18:54:45.796Z,66.61
2023-05-03T18:57:31.945Z,67.25
2023-05-03T19:00:30.087Z,66.73
2023-05-03T19:03:14.245Z,65.85
2023-05-03T19:06:02.894Z,66.24
2023-05-03T19:08:53.723Z,65.94
2023-05-03T19:11:37.950Z,66.49
2023-05-03T19:14:22.328Z,65.90
2023-05-03T19:17:15.376Z,66.37
2023-05-03T19:20:05.408Z,65.59
2023-05-03T19:22:50.274Z,65.14
2023-05-03T19:25:39.248Z,66.89
2023-05-03T19:28:26.422Z,69.49
2023-05-03T19:31:12.809Z,70.52
2023-05-03T19:33:57.153Z,71.54
2023-05-03T19:36:46.176Z,71.79
2023-05-03T19:39:36.908Z,69.83
2023-05-03T19:42:22.486Z,70.55
2023-05-03T19:45:11.363Z,71.72
2023-05-03T19:47:55.830Z,69.61
2023-05-03T19:50:40.176Z,70.17
2023-05-03T19:53:24.320Z,68.70
2023-05-03T19:56:09.805Z,67.20
2023-05-03T19:58:55.753Z,65.40
2023-05-03T20:01:40.025Z,64.83
2023-05-03T20:04:28.817Z,65.83
2023-05-03T20:07:12.962Z,65.92
2023-05-03T20:09:57.238Z,66.20
2023-05-03T20:12:41.378Z,68.85
2023-05-03T20:15:35.144Z,68.55
2023-05-03T20:18:19.371Z,69.83
2023-05-03T20:21:03.962Z,69.67
2023-05-03T20:23:52.495Z,71.30
2023-05-03T20:26:44.609Z,70.73
2023-05-03T20:29:28.831Z,71.72
2023-05-03T20:32:14.404Z,70.73
2023-05-03T20:35:02.490Z,71.60
2023-05-03T20:37:47.620Z,70.49
2023-05-03T20:40:35.838Z,69.98
2023-05-03T20:43:22.790Z,68.51
2023-05-03T20:46:12.446Z,69.58
2023-05-03T20:48:58.940Z,68.97
2023-05-03T20:51:43.073Z,67.72
2023-05-03T20:54:32.946Z,66.52
2023-05-03T20:57:20.202Z,67.17
2023-05-03T21:00:04.889Z,70.18
2023-05-03T21:02:56.651Z,72.09
2023-05-03T21:05:42.175Z,73.62
2023-05-03T21:08:29.115Z,73.39
2023-05-03T21:11:20.510Z,75.62
2023-05-03T21:14:04.566Z,77.68
2023-05-03T21:16:51.397Z,78.48
2023-05-03T21:19:35.651Z,78.35
2023-05-03T21:22:30.061Z,78.33
2023-05-03T21:25:14.512Z,78.16
2023-05-03T21:27:58.717Z,78.32
2023-05-03T21:30:45.974Z,78.46
2023-05-03T21:33:32.538Z,77.90
2023-05-03T21:36:17.309Z,79.21
2023-05-03T21:39:05.799Z,80.15
2023-05-03T21:41:49.899Z,80.88
2023-05-03T21:44:35.091Z,80.15
2023-05-03T21:47:21.654Z,80.48
2023-05-03T21:50:07.155Z,81.26
2023-05-03T21:52:54.240Z,80.84
2023-05-03T21:55:40.056Z,80.72
2023-05-03T21:58:24.246Z,81.53
2023-05-03T22:01:11.114Z,80.21
2023-05-03T22:03:55.524Z,83.20
2023-05-03T22:06:39.676Z,84.93
2023-05-03T22:09:28.422Z,83.39
2023-05-03T22:12:23.524Z,84.46
2023-05-03T22:15:09.558Z,84.15
2023-05-03T22:17:53.681Z,85.66
2023-05-03T22:20:37.885Z,86.16
2023-05-03T22:23:21.896Z,86.35
2023-05-03T22:26:05.987Z,86.58
2023-05-03T22:28:51.467Z,87.48
2023-05-03T22:31:35.447Z,88.00
2023-05-03T22:34:19.710Z,91.37
2023-05-03T22:37:03.720Z,90.05
2023-05-03T22:39:47.725Z,86.59
2023-05-03T22:42:31.780Z,84.71
2023-05-03T22:45:17.163Z,87.47
2023-05-03T22:48:01.203Z,86.21
2023-05-03T22:50:45.564Z,85.57
2023-05-03T22:53:29.491Z,85.01
2023-05-03T22:56:13.550Z,82.80
2023-05-03T22:58:57.312Z,81.48
2023-05-03T23:01:44.173Z,81.71
2023-05-03T23:04:28.040Z,81.94
2023-05-03T23:07:11.860Z,82.64
2023-05-03T23:10:02.961Z,84.85
2023-05-03T23:12:50.224Z,81.65
2023-05-03T23:15:34.427Z,81.93
2023-05-03T23:18:19.810Z,80.40
2023-05-03T23:21:04.448Z,80.58
2023-05-03T23:23:48.167Z,79.07
2023-05-03T23:26:32.052Z,80.83
2023-05-03T23:29:16.737Z,83.16
2023-05-03T23:32:01.075Z,82.36
2023-05-03T23:34:46.616Z,83.29
2023-05-03T23:37:30.634Z,85.97
2023-05-03T23:40:14.572Z,86.61
2023-05-03T23:42:58.421Z,87.94
2023-05-03T23:45:42.415Z,90.58
2023-05-03T23:48:26.178Z,92.55
2023-05-03T23:51:11.444Z,95.11
2023-05-03T23:53:55.250Z,98.16
2023-05-03T23:56:39.208Z,97.87
2023-05-03T23:59:22.948Z,98.38
